KMEZ

Mena Intermountain Municipal Airport

Mena, Arkansas, USA
METAR KMEZ 162155Z AUTO 00000KT 10SM CLR 16/09 A3022 RMK AO2
Observed Flight Rules
Dec-16 @ 21:55 UTC (8 minutes ago) Visual Flight Rules
Visibility Clouds
10 miles
  • Clear skies
Temperatures Readings
Current 16°C / 61°F
Dewpoint 9°C / 48°F
Humidity 63%
Altimeter 30.22" Hg
Pressure 1023 hPa
Elevation 329
METAR KMEZ 162155Z AUTO 00000KT 10SM CLR 16/09 A3022 RMK AO2
Observed Flight Rules
Dec-16 @ 21:55 UTC
(8 minutes ago)
VFR
Clouds
  • Clear skies
Temperature Dewpoint
16°C / 61°F 9°C / 48°F
Humidity Altimeter Pressure
63% 30.22" Hg 1023 hPa